CheckWX is a tool to help pilots better visualize weather data.  It is not intended as a substitute for an official pre-flight weather briefing.

17:42:08 UTC

KGED METAR
Delaware Coastal Airport
Georgetown, Delaware, USA
Current

48 mins ago

KGED 211654Z AUTO VRB05KT 10SM CLR 36/24 A2987 RMK AO2 SLP115 T03610239
Observed
Jul-21 @ 16:54 UTC
Wind
  • Variable at 5 KTS
Visibility
10 SM
Flight Rules
VFR
Cloud Levels
  • Clear skies
Temperature
36°C / 97°F
Dewpoint
24°C / 75°F
Heat Index
43°C / 110°F
Humidity
50%
Altimeter
29.87" Hg
Pressure
1011.52 hPa
Previous

2 hours ago

KGED 211554Z AUTO 29007KT 10SM CLR 35/24 A2989 RMK AO2 SLP119 T03500244
Observed
Jul-21 @ 15:54 UTC
Wind
  • 290° at 7 KTS
Visibility
10 SM
Flight Rules
VFR
Cloud Levels
  • Clear skies
Temperature
35°C / 95°F
Dewpoint
24°C / 75°F
Heat Index
42°C / 107°F
Humidity
53%
Altimeter
29.89" Hg
Pressure
1012.22 hPa
Previous

3 hours ago

KGED 211454Z AUTO 32007KT 280V340 10SM CLR 34/25 A2989 RMK AO2 SLP121 T03390250 51005
Observed
Jul-21 @ 14:54 UTC
Wind
  • 320° at 7 KTS
Visibility
10 SM
Flight Rules
VFR
Cloud Levels
  • Clear skies
Temperature
34°C / 93°F
Dewpoint
25°C / 77°F
Heat Index
42°C / 107°F
Humidity
59%
Altimeter
29.89" Hg
Pressure
1012.22 hPa